Simcoe, Canada
Current Conditions -  °F | °C
As of 5:00 PM on Saturday 25 Oct 2014 (Local Time) from CYHM Reporting Station
Scattered Clouds Scattered Clouds  
Wind Chill: 61°   Ceiling: Unl
Heat Index: 61°   Visibility: 12mi
Dew Point: 46°   Wind: 14mph
Humidity: 59%   Direction: 270°W
Pressure: 29.64"   Gusts: 23mph
Location:  42.84°N, 80.31°W
Report Text: CYHM 252100Z 27012G20KT 12SM SCT032 SCT044 16/08 A2964 RMK CU3SC1 SLP040 DENSITY ALT 1300FT
Loading
Personal Weather Stations






























Interactive Weather Map
Tropical Storm Tracking
New forecast layout! Learn more

10-Day Weather Forecast

Advertisements
Track Severe Weather on mobile